Time;durP1;ratioP1;P1;durP2;ratioP2;P2;SDS_P1;SDS_P2;PMS_P1;PMS_P2;Temp;Humidity;BMP_temperature;BMP_pressure;BME280_temperature;BME280_humidity;BME280_pressure;Samples;Min_cycle;Max_cycle;Signal;HPM_P1;HPM_P2
2023/06/24 00:02:26;;;;;;;;;;;;;;;18.72;60.53;99139.81;7368938;19;20604;-71
2023/06/24 00:04:52;;;;;;;;;;;;;;;18.65;60.81;99145.09;7367921;19;19995;-71
2023/06/24 00:07:22;;;;;;;;;;;;;;;18.57;60.89;99145.22;7363702;19;20432;-70
2023/06/24 00:09:49;;;;;;;;;;;;;;;18.38;61.65;99143.13;7376266;19;19946;-71
2023/06/24 00:12:18;;;;;;;;;;;;;;;18.15;62.61;99152.09;7377735;19;19928;-71
2023/06/24 00:14:49;;;;;;;;;;;;;;;18.17;62.59;99149.25;7371133;19;19943;-71
2023/06/24 00:17:16;;;;;;;;;;;;;;;18.09;62.30;99155.53;7363098;19;19922;-71
2023/06/24 00:19:46;;;;;;;;;;;;;;;18.08;62.34;99156.53;7372437;19;19995;-70
2023/06/24 00:22:13;;;;;;;;;;;;;;;18.21;62.53;99156.72;7373433;19;20284;-71
2023/06/24 00:24:42;;;;;;;;;;;;;;;18.34;61.77;99156.06;7370606;19;19970;-71
2023/06/24 00:27:09;;;;;;;;;;;;;;;18.03;62.94;99152.75;7373493;19;20625;-70
2023/06/24 00:29:36;;;;;;;;;;;;;;;17.93;63.84;99153.00;7368345;19;19925;-71
2023/06/24 00:32:03;;;;;;;;;;;;;;;17.93;63.83;99161.91;7368949;19;20329;-71
2023/06/24 00:34:30;;;;;;;;;;;;;;;18.17;62.75;99160.78;7359144;19;21850;-71
2023/06/24 00:36:56;;;;;;;;;;;;;;;17.98;64.12;99164.00;7368603;19;20014;-71
2023/06/24 00:39:23;;;;;;;;;;;;;;;17.87;64.34;99164.47;7367717;19;19990;-71
2023/06/24 00:41:50;;;;;;;;;;;;;;;17.88;64.22;99166.97;7368799;19;20612;-71
2023/06/24 00:44:17;;;;;;;;;;;;;;;17.81;63.85;99162.53;7365502;19;19950;-70
2023/06/24 00:46:43;;;;;;;;;;;;;;;17.71;64.50;99163.56;7365795;19;19922;-71
2023/06/24 00:49:13;;;;;;;;;;;;;;;17.57;64.94;99159.03;7370881;19;19927;-71
2023/06/24 00:51:40;;;;;;;;;;;;;;;17.80;63.77;99152.81;7366574;19;19959;-71
2023/06/24 00:54:08;;;;;;;;;;;;;;;17.83;64.20;99152.47;7372748;19;19927;-71
2023/06/24 00:56:38;;;;;;;;;;;;;;;18.05;63.09;99156.06;7367794;19;19982;-71
2023/06/24 00:59:06;;;;;;;;;;;;;;;18.04;62.80;99157.94;7371897;19;19982;-71
2023/06/24 01:01:33;;;;;;;;;;;;;;;18.00;63.28;99153.94;7368425;19;19929;-71
2023/06/24 01:04:00;;;;;;;;;;;;;;;17.70;64.37;99163.78;7369190;19;19995;-71
2023/06/24 01:06:30;;;;;;;;;;;;;;;17.36;65.92;99154.38;7361423;19;19977;-71
2023/06/24 01:08:57;;;;;;;;;;;;;;;17.22;66.19;99156.00;7371416;19;20254;-71
2023/06/24 01:11:24;;;;;;;;;;;;;;;17.39;66.39;99147.84;7370133;19;19919;-71
2023/06/24 01:13:50;;;;;;;;;;;;;;;17.28;67.33;99154.44;7371737;19;19927;-71
2023/06/24 01:16:26;;;;;;;;;;;;;;;17.46;66.21;99146.94;7369744;19;19918;-70
2023/06/24 01:18:58;;;;;;;;;;;;;;;17.42;66.27;99148.31;7371807;19;19922;-71
2023/06/24 01:21:24;;;;;;;;;;;;;;;17.65;65.80;99139.41;7362507;19;19920;-71
2023/06/24 01:24:09;;;;;;;;;;;;;;;17.74;65.17;99141.81;7370927;19;19940;-71
2023/06/24 01:26:42;;;;;;;;;;;;;;;17.54;66.28;99138.84;7363055;19;19926;-71
2023/06/24 01:29:21;;;;;;;;;;;;;;;17.61;64.68;99144.28;7367118;19;19957;-71
2023/06/24 01:31:57;;;;;;;;;;;;;;;17.59;65.11;99148.16;7368759;19;19940;-71
2023/06/24 01:34:42;;;;;;;;;;;;;;;17.55;65.08;99134.31;7362138;19;20333;-71
2023/06/24 01:37:44;;;;;;;;;;;;;;;17.58;64.73;99146.50;7365190;19;19923;-71
2023/06/24 01:40:12;;;;;;;;;;;;;;;17.62;64.44;99134.44;7365446;19;19937;-71
2023/06/24 01:42:39;;;;;;;;;;;;;;;17.16;65.99;99135.31;7369268;19;19927;-71
2023/06/24 01:45:10;;;;;;;;;;;;;;;16.72;67.96;99143.09;7369090;19;20013;-71
2023/06/24 01:47:38;;;;;;;;;;;;;;;16.76;67.89;99144.44;7365885;19;19922;-71
2023/06/24 01:50:05;;;;;;;;;;;;;;;16.74;67.87;99141.09;7367553;19;20012;-71
2023/06/24 01:52:31;;;;;;;;;;;;;;;16.72;68.03;99140.44;7364484;19;19914;-71
2023/06/24 01:54:58;;;;;;;;;;;;;;;16.71;68.43;99146.81;7362621;19;20012;-71
2023/06/24 01:57:25;;;;;;;;;;;;;;;16.82;67.82;99133.06;7357897;19;19926;-71
2023/06/24 01:59:53;;;;;;;;;;;;;;;16.63;68.49;99139.66;7366387;19;20300;-71
2023/06/24 02:02:20;;;;;;;;;;;;;;;16.74;68.30;99138.44;7364057;19;19918;-69
2023/06/24 02:04:47;;;;;;;;;;;;;;;16.98;67.94;99135.63;7365330;19;19982;-70
2023/06/24 02:07:14;;;;;;;;;;;;;;;17.15;67.87;99136.34;7363840;19;19926;-69
2023/06/24 02:09:44;;;;;;;;;;;;;;;17.31;67.20;99132.69;7365031;19;19992;-70
2023/06/24 02:12:11;;;;;;;;;;;;;;;17.35;66.16;99133.97;7347602;19;19919;-69
2023/06/24 02:14:38;;;;;;;;;;;;;;;17.19;66.50;99136.78;7356830;19;19938;-69
2023/06/24 02:17:08;;;;;;;;;;;;;;;17.03;66.82;99129.72;7362590;19;20405;-70
2023/06/24 02:19:34;;;;;;;;;;;;;;;17.00;66.93;99138.94;7366234;19;19919;-69
2023/06/24 02:22:01;;;;;;;;;;;;;;;16.83;67.47;99134.75;7370601;19;19922;-69
2023/06/24 02:24:28;;;;;;;;;;;;;;;16.78;67.57;99132.59;7361139;19;19926;-70
2023/06/24 02:26:54;;;;;;;;;;;;;;;16.75;67.53;99132.09;7365504;19;19945;-70
2023/06/24 02:29:22;;;;;;;;;;;;;;;16.89;67.43;99126.81;7364173;19;20356;-69
2023/06/24 02:31:49;;;;;;;;;;;;;;;16.81;67.44;99131.41;7377872;19;19958;-69
2023/06/24 02:34:15;;;;;;;;;;;;;;;16.62;68.43;99128.16;7378886;19;19943;-69
2023/06/24 02:36:42;;;;;;;;;;;;;;;16.60;68.50;99129.34;7376228;19;19978;-69
2023/06/24 02:39:09;;;;;;;;;;;;;;;16.53;68.68;99129.19;7381379;19;19927;-69
2023/06/24 02:41:37;;;;;;;;;;;;;;;16.34;69.97;99119.78;7379112;19;19915;-70
2023/06/24 02:44:04;;;;;;;;;;;;;;;16.45;69.79;99123.88;7371295;19;19942;-69
2023/06/24 02:46:31;;;;;;;;;;;;;;;16.29;70.69;99121.31;7367203;19;19958;-70
2023/06/24 02:48:58;;;;;;;;;;;;;;;16.40;69.57;99124.44;7382884;19;19923;-69
2023/06/24 02:51:25;;;;;;;;;;;;;;;16.20;70.87;99125.88;7377361;19;19956;-69
2023/06/24 02:53:52;;;;;;;;;;;;;;;16.41;69.77;99119.94;7378834;19;19923;-69
2023/06/24 02:56:27;;;;;;;;;;;;;;;16.50;69.36;99118.84;7377928;19;19918;-70
2023/06/24 02:58:54;;;;;;;;;;;;;;;16.63;68.79;99128.97;7384008;19;19925;-70
2023/06/24 03:01:27;;;;;;;;;;;;;;;16.56;68.56;99130.69;7377613;19;19915;-70
2023/06/24 03:03:55;;;;;;;;;;;;;;;16.45;68.97;99132.72;7376647;19;20539;-69
2023/06/24 03:06:23;;;;;;;;;;;;;;;16.38;69.30;99134.47;7373558;19;19948;-69
2023/06/24 03:08:53;;;;;;;;;;;;;;;16.27;69.42;99132.16;7368644;19;19922;-69
2023/06/24 03:11:22;;;;;;;;;;;;;;;16.26;69.66;99125.16;7372455;19;19945;-68
2023/06/24 03:13:48;;;;;;;;;;;;;;;16.26;69.67;99124.34;7377368;19;19950;-69
2023/06/24 03:16:25;;;;;;;;;;;;;;;16.36;69.30;99132.97;7370391;19;19919;-69
2023/06/24 03:18:56;;;;;;;;;;;;;;;16.44;68.98;99127.59;7370608;19;19919;-69
2023/06/24 03:21:28;;;;;;;;;;;;;;;16.27;69.61;99134.00;7369786;19;20349;-69
2023/06/24 03:24:01;;;;;;;;;;;;;;;16.20;69.88;99136.53;7379955;19;19923;-69
2023/06/24 03:26:32;;;;;;;;;;;;;;;16.15;70.18;99138.91;7372463;19;19919;-70
2023/06/24 03:28:59;;;;;;;;;;;;;;;16.21;69.84;99152.38;7376334;19;19918;-69
2023/06/24 03:31:25;;;;;;;;;;;;;;;16.18;70.06;99152.72;7374222;19;19923;-69
2023/06/24 03:33:52;;;;;;;;;;;;;;;15.86;71.09;99158.16;7369184;19;19918;-69
2023/06/24 03:36:20;;;;;;;;;;;;;;;16.07;70.37;99161.09;7362602;19;19925;-69
2023/06/24 03:38:46;;;;;;;;;;;;;;;16.19;70.44;99165.09;7375163;19;19950;-69
2023/06/24 03:41:13;;;;;;;;;;;;;;;16.30;70.20;99165.69;7376787;19;19998;-69
2023/06/24 03:43:41;;;;;;;;;;;;;;;16.39;69.48;99172.66;7354761;19;20992;-69
2023/06/24 03:46:08;;;;;;;;;;;;;;;16.26;69.51;99180.41;7364476;19;19953;-69
2023/06/24 03:48:35;;;;;;;;;;;;;;;16.11;70.36;99186.44;7359619;19;19927;-69
2023/06/24 03:51:02;;;;;;;;;;;;;;;16.04;70.82;99184.66;7367395;19;20277;-69
2023/06/24 03:53:29;;;;;;;;;;;;;;;15.97;71.04;99181.81;7361931;19;19926;-70
2023/06/24 03:55:56;;;;;;;;;;;;;;;16.00;71.15;99181.47;7359950;19;20010;-69
2023/06/24 03:58:23;;;;;;;;;;;;;;;16.10;71.10;99182.13;7368244;19;19919;-69
2023/06/24 04:00:50;;;;;;;;;;;;;;;15.87;72.03;99186.50;7369718;19;19918;-69
2023/06/24 04:03:19;;;;;;;;;;;;;;;16.03;72.09;99189.13;7376916;19;19942;-70
2023/06/24 04:05:46;;;;;;;;;;;;;;;16.11;71.72;99190.94;7367072;19;19922;-69
2023/06/24 04:08:19;;;;;;;;;;;;;;;16.44;70.26;99187.16;7366424;19;19919;-70
2023/06/24 04:10:46;;;;;;;;;;;;;;;16.53;70.03;99193.28;7362876;19;19918;-69
2023/06/24 04:13:13;;;;;;;;;;;;;;;16.70;69.95;99193.25;7370162;19;20385;-70
2023/06/24 04:15:40;;;;;;;;;;;;;;;16.82;69.43;99189.19;7366218;19;20409;-69
2023/06/24 04:18:07;;;;;;;;;;;;;;;16.92;69.57;99192.47;7364822;19;20731;-70
2023/06/24 04:20:34;;;;;;;;;;;;;;;17.11;69.26;99199.19;7361672;19;19922;-69
2023/06/24 04:23:04;;;;;;;;;;;;;;;17.25;68.76;99202.94;7368158;19;20341;-70
2023/06/24 04:25:31;;;;;;;;;;;;;;;17.32;68.00;99202.06;7363119;19;19927;-69
2023/06/24 04:27:58;;;;;;;;;;;;;;;17.42;68.14;99206.31;7361714;19;19925;-70
2023/06/24 04:30:24;;;;;;;;;;;;;;;17.54;67.51;99202.22;7362338;19;19918;-70
2023/06/24 04:32:51;;;;;;;;;;;;;;;17.59;68.16;99207.00;7369667;19;21715;-69
2023/06/24 04:35:18;;;;;;;;;;;;;;;17.64;67.32;99202.81;7368497;19;19922;-69
2023/06/24 04:37:45;;;;;;;;;;;;;;;17.77;66.47;99212.88;7365827;19;20381;-69
2023/06/24 04:40:13;;;;;;;;;;;;;;;17.87;66.51;99209.97;7367635;19;19919;-69
2023/06/24 04:42:40;;;;;;;;;;;;;;;17.90;66.60;99217.63;7366263;19;20569;-69
2023/06/24 04:45:06;;;;;;;;;;;;;;;17.93;65.90;99215.44;7360433;19;21693;-69
2023/06/24 04:47:33;;;;;;;;;;;;;;;17.91;66.36;99214.78;7361042;19;19919;-69
2023/06/24 04:50:00;;;;;;;;;;;;;;;18.07;65.58;99218.31;7367287;19;19922;-69
2023/06/24 04:52:26;;;;;;;;;;;;;;;18.13;66.03;99212.22;7370528;19;19922;-69
2023/06/24 04:54:53;;;;;;;;;;;;;;;18.11;65.76;99206.22;7364902;19;19922;-69
2023/06/24 04:57:24;;;;;;;;;;;;;;;18.29;65.50;99206.69;7372634;19;19918;-69
2023/06/24 04:59:50;;;;;;;;;;;;;;;18.26;65.36;99207.06;7356036;19;19923;-69
2023/06/24 05:02:17;;;;;;;;;;;;;;;18.30;65.31;99213.72;7369546;19;19926;-69
2023/06/24 05:04:43;;;;;;;;;;;;;;;18.36;65.60;99209.47;7363752;19;20597;-69
2023/06/24 05:07:10;;;;;;;;;;;;;;;18.39;65.30;99212.59;7366571;19;19922;-69
2023/06/24 05:09:37;;;;;;;;;;;;;;;18.39;64.74;99220.63;7359599;19;20341;-69
2023/06/24 05:12:05;;;;;;;;;;;;;;;18.36;65.13;99218.31;7374368;19;19931;-69
2023/06/24 05:14:31;;;;;;;;;;;;;;;18.33;65.23;99217.88;7364007;19;19923;-69
2023/06/24 05:16:58;;;;;;;;;;;;;;;18.38;65.04;99221.66;7359680;19;19943;-69
2023/06/24 05:19:25;;;;;;;;;;;;;;;18.39;64.85;99223.31;7371306;19;19919;-69
2023/06/24 05:21:51;;;;;;;;;;;;;;;18.51;64.67;99225.50;7365837;19;19915;-69
2023/06/24 05:24:18;;;;;;;;;;;;;;;18.72;64.52;99217.56;7361481;19;20030;-69
2023/06/24 05:26:48;;;;;;;;;;;;;;;18.82;65.32;99222.63;7352501;19;19915;-69
2023/06/24 05:29:14;;;;;;;;;;;;;;;18.85;64.44;99220.44;7366203;19;20272;-69
2023/06/24 05:31:41;;;;;;;;;;;;;;;18.95;64.03;99217.44;7366186;19;19927;-69
2023/06/24 05:34:08;;;;;;;;;;;;;;;19.07;62.86;99226.66;7366958;19;19918;-69
2023/06/24 05:36:35;;;;;;;;;;;;;;;19.18;63.18;99225.31;7362143;19;19929;-70
2023/06/24 05:39:01;;;;;;;;;;;;;;;19.35;63.18;99220.53;7363131;19;19954;-69
2023/06/24 05:41:28;;;;;;;;;;;;;;;19.48;61.76;99218.00;7367729;19;19929;-70
2023/06/24 05:44:02;;;;;;;;;;;;;;;19.60;60.91;99215.59;7362052;19;19923;-70
2023/06/24 05:46:29;;;;;;;;;;;;;;;19.79;60.93;99222.19;7367346;19;19990;-70
2023/06/24 05:48:55;;;;;;;;;;;;;;;19.94;60.46;99217.56;7366758;19;19926;-70
2023/06/24 05:51:22;;;;;;;;;;;;;;;20.08;60.38;99223.03;7366438;19;19915;-70
2023/06/24 05:53:49;;;;;;;;;;;;;;;20.24;60.04;99220.03;7365832;19;19971;-70
2023/06/24 05:56:16;;;;;;;;;;;;;;;20.38;58.64;99218.25;7368868;19;19933;-70
2023/06/24 05:58:43;;;;;;;;;;;;;;;20.45;58.71;99223.66;7364798;19;19926;-70
2023/06/24 06:01:09;;;;;;;;;;;;;;;20.61;58.33;99224.16;7364824;19;19946;-70
2023/06/24 06:03:36;;;;;;;;;;;;;;;20.69;58.18;99225.03;7363418;19;19914;-70
2023/06/24 06:06:03;;;;;;;;;;;;;;;20.89;57.27;99228.66;7365430;19;19934;-70
2023/06/24 06:08:30;;;;;;;;;;;;;;;20.92;57.41;99225.53;7362954;19;19926;-70
2023/06/24 06:10:57;;;;;;;;;;;;;;;21.12;56.86;99225.63;7368523;19;20360;-70
2023/06/24 06:13:23;;;;;;;;;;;;;;;21.08;56.96;99223.53;7372803;19;19926;-70
2023/06/24 06:15:50;;;;;;;;;;;;;;;21.29;56.19;99227.94;7365736;19;19915;-69
2023/06/24 06:18:17;;;;;;;;;;;;;;;21.48;56.42;99214.53;7371038;19;20389;-70
2023/06/24 06:20:43;;;;;;;;;;;;;;;21.65;54.65;99216.81;7368382;19;20345;-70
2023/06/24 06:23:10;;;;;;;;;;;;;;;21.76;54.26;99212.69;7368669;19;19933;-70
2023/06/24 06:25:38;;;;;;;;;;;;;;;21.89;54.52;99210.78;7363391;19;19940;-70
2023/06/24 06:28:04;;;;;;;;;;;;;;;22.08;54.55;99208.28;7372728;19;20257;-70
2023/06/24 06:30:31;;;;;;;;;;;;;;;22.08;53.53;99202.91;7370374;19;19933;-70
2023/06/24 06:32:58;;;;;;;;;;;;;;;22.13;53.51;99203.91;7371575;19;20563;-70
2023/06/24 06:35:24;;;;;;;;;;;;;;;22.44;52.71;99202.44;7370975;19;19926;-70
2023/06/24 06:37:52;;;;;;;;;;;;;;;22.40;50.54;99211.16;7366354;19;19926;-70
2023/06/24 06:40:22;;;;;;;;;;;;;;;22.55;53.37;99204.47;7367456;19;19940;-70
2023/06/24 06:42:49;;;;;;;;;;;;;;;22.33;53.79;99200.41;7364800;19;19918;-70
2023/06/24 06:45:15;;;;;;;;;;;;;;;22.40;52.53;99205.75;7363029;19;20562;-70
2023/06/24 06:47:44;;;;;;;;;;;;;;;22.47;49.95;99202.00;7364203;19;19910;-70
2023/06/24 06:50:10;;;;;;;;;;;;;;;22.46;49.19;99202.19;7360678;19;19927;-70
2023/06/24 06:52:38;;;;;;;;;;;;;;;22.36;50.69;99199.97;7360969;19;19931;-70
2023/06/24 06:55:05;;;;;;;;;;;;;;;22.33;50.78;99206.63;7364479;19;19919;-70
2023/06/24 06:57:32;;;;;;;;;;;;;;;22.51;52.43;99207.78;7365275;19;19919;-69
2023/06/24 06:59:58;;;;;;;;;;;;;;;22.69;52.25;99204.41;7362181;19;19923;-70
2023/06/24 07:02:25;;;;;;;;;;;;;;;22.73;52.09;99206.47;7369471;19;19971;-70
2023/06/24 07:04:52;;;;;;;;;;;;;;;22.89;49.06;99198.94;7353742;19;20977;-70
2023/06/24 07:07:18;;;;;;;;;;;;;;;22.87;49.85;99199.13;7356903;19;19918;-70
2023/06/24 07:09:46;;;;;;;;;;;;;;;23.00;50.50;99196.41;7360924;19;20322;-69
2023/06/24 07:12:13;;;;;;;;;;;;;;;23.11;49.35;99202.97;7368707;19;20024;-70
2023/06/24 07:14:40;;;;;;;;;;;;;;;23.12;49.02;99201.94;7355426;19;19923;-70
2023/06/24 07:17:07;;;;;;;;;;;;;;;23.14;50.89;99202.53;7371592;19;19919;-70
2023/06/24 07:19:33;;;;;;;;;;;;;;;23.34;48.31;99201.59;7376509;19;19923;-70
2023/06/24 07:22:00;;;;;;;;;;;;;;;23.52;46.70;99209.78;7377092;19;20352;-70
2023/06/24 07:24:27;;;;;;;;;;;;;;;23.58;46.93;99206.19;7370666;19;19931;-70
2023/06/24 07:26:53;;;;;;;;;;;;;;;23.60;46.55;99206.81;7362599;19;19923;-70
2023/06/24 07:29:20;;;;;;;;;;;;;;;23.62;48.03;99195.78;7372340;19;19930;-70
2023/06/24 07:31:47;;;;;;;;;;;;;;;23.65;46.90;99198.88;7366685;19;20262;-70
2023/06/24 07:34:14;;;;;;;;;;;;;;;23.78;47.55;99194.44;7363785;19;19944;-70
2023/06/24 07:36:40;;;;;;;;;;;;;;;23.89;47.59;99196.41;7359671;19;19922;-70
2023/06/24 07:39:07;;;;;;;;;;;;;;;23.97;46.21;99192.59;7370210;19;19930;-70
2023/06/24 07:41:34;;;;;;;;;;;;;;;24.17;45.63;99195.09;7372412;19;19914;-70
2023/06/24 07:44:01;;;;;;;;;;;;;;;24.30;44.32;99189.53;7372552;19;20710;-70
2023/06/24 07:46:28;;;;;;;;;;;;;;;24.36;41.47;99183.25;7365756;19;19922;-70
2023/06/24 07:48:55;;;;;;;;;;;;;;;24.42;45.14;99186.91;7362733;19;19915;-69
2023/06/24 07:51:21;;;;;;;;;;;;;;;24.59;43.41;99189.84;7363719;19;19919;-70
2023/06/24 07:53:48;;;;;;;;;;;;;;;24.80;43.08;99191.25;7366331;19;19919;-70
2023/06/24 07:56:15;;;;;;;;;;;;;;;25.03;43.61;99185.13;7370382;19;20000;-70
2023/06/24 07:58:42;;;;;;;;;;;;;;;25.15;42.77;99183.28;7369994;19;20312;-70
2023/06/24 08:01:08;;;;;;;;;;;;;;;25.00;42.22;99182.88;7370286;19;19919;-71
2023/06/24 08:03:37;;;;;;;;;;;;;;;25.05;43.56;99191.97;7370259;19;20622;-70
2023/06/24 08:06:04;;;;;;;;;;;;;;;25.13;42.54;99194.34;7368297;19;19919;-69
2023/06/24 08:08:30;;;;;;;;;;;;;;;25.43;39.76;99176.44;7370944;19;19934;-70
2023/06/24 08:10:57;;;;;;;;;;;;;;;25.38;41.63;99183.38;7369781;19;20631;-70
2023/06/24 08:13:24;;;;;;;;;;;;;;;25.53;42.70;99179.41;7375370;19;19919;-71
2023/06/24 08:15:50;;;;;;;;;;;;;;;25.74;40.75;99172.59;7368853;19;19925;-70
2023/06/24 08:18:17;;;;;;;;;;;;;;;25.65;39.87;99182.94;7367539;19;19926;-71
2023/06/24 08:20:43;;;;;;;;;;;;;;;25.77;41.06;99175.63;7361939;19;19919;-70
2023/06/24 08:23:10;;;;;;;;;;;;;;;26.04;40.67;99176.03;7364821;19;19922;-71
2023/06/24 08:25:37;;;;;;;;;;;;;;;26.00;39.66;99171.31;7367043;19;19918;-69
2023/06/24 08:28:04;;;;;;;;;;;;;;;26.05;40.26;99163.31;7371551;19;19926;-72
2023/06/24 08:30:31;;;;;;;;;;;;;;;26.13;39.90;99167.53;7370973;19;20221;-70
2023/06/24 08:32:58;;;;;;;;;;;;;;;26.15;38.49;99163.53;7366808;19;19923;-70
2023/06/24 08:35:25;;;;;;;;;;;;;;;26.15;40.96;99168.13;7367638;19;19951;-71
2023/06/24 08:37:51;;;;;;;;;;;;;;;26.13;42.31;99159.41;7363596;19;19925;-71
2023/06/24 08:40:18;;;;;;;;;;;;;;;26.38;40.43;99162.63;7361448;19;19970;-71
2023/06/24 08:42:46;;;;;;;;;;;;;;;26.43;40.27;99156.50;7361900;19;20437;-72
2023/06/24 08:45:12;;;;;;;;;;;;;;;26.44;39.08;99158.16;7354762;19;19933;-72
2023/06/24 08:47:42;;;;;;;;;;;;;;;26.61;37.59;99159.06;7348551;19;20201;-71
2023/06/24 08:50:11;;;;;;;;;;;;;;;26.53;39.96;99164.88;7367854;19;20316;-72
2023/06/24 08:52:38;;;;;;;;;;;;;;;26.71;37.78;99156.56;7363605;19;20420;-71
2023/06/24 08:55:05;;;;;;;;;;;;;;;26.78;34.91;99158.28;7361870;19;19938;-71
2023/06/24 08:57:32;;;;;;;;;;;;;;;26.98;34.97;99152.44;7372500;19;20342;-71
2023/06/24 08:59:58;;;;;;;;;;;;;;;27.02;34.27;99153.63;7354903;19;19979;-71
2023/06/24 09:02:25;;;;;;;;;;;;;;;27.41;36.70;99153.75;7367643;19;20638;-72
2023/06/24 09:04:52;;;;;;;;;;;;;;;27.61;36.14;99150.53;7356144;19;20425;-72
2023/06/24 09:07:25;;;;;;;;;;;;;;;27.64;32.96;99152.75;7368111;19;19929;-71
2023/06/24 09:09:52;;;;;;;;;;;;;;;27.73;34.26;99152.09;7364782;19;20684;-73
2023/06/24 09:12:19;;;;;;;;;;;;;;;27.53;34.56;99154.50;7372229;19;20900;-71
2023/06/24 09:14:50;;;;;;;;;;;;;;;27.83;32.22;99151.44;7366736;19;20257;-71
2023/06/24 09:17:17;;;;;;;;;;;;;;;27.79;33.80;99150.28;7370632;19;20018;-72
2023/06/24 09:19:44;;;;;;;;;;;;;;;27.60;34.28;99146.19;7370511;19;19919;-72
2023/06/24 09:22:17;;;;;;;;;;;;;;;27.40;35.44;99143.97;7364162;19;19914;-72
2023/06/24 09:24:46;;;;;;;;;;;;;;;27.73;33.09;99134.97;7363758;19;19923;-72
2023/06/24 09:27:19;;;;;;;;;;;;;;;27.96;34.16;99134.81;7365376;19;19951;-71
2023/06/24 09:29:47;;;;;;;;;;;;;;;28.13;31.71;99126.59;7365999;19;20261;-72
2023/06/24 09:32:13;;;;;;;;;;;;;;;27.95;34.35;99127.69;7368659;19;19942;-72
2023/06/24 09:34:40;;;;;;;;;;;;;;;28.25;30.75;99129.16;7359684;19;19949;-70
2023/06/24 09:37:07;;;;;;;;;;;;;;;27.92;32.24;99130.09;7370870;19;20250;-72
2023/06/24 09:39:37;;;;;;;;;;;;;;;28.14;31.56;99124.69;7367667;19;20301;-71
2023/06/24 09:42:04;;;;;;;;;;;;;;;28.27;31.22;99123.50;7359539;19;19922;-71
2023/06/24 09:44:32;;;;;;;;;;;;;;;28.67;26.98;99132.19;7362811;19;19915;-71
2023/06/24 09:46:59;;;;;;;;;;;;;;;28.59;28.56;99120.91;7365876;19;20371;-71
2023/06/24 09:49:26;;;;;;;;;;;;;;;28.10;28.58;99116.22;7374693;19;19956;-73
2023/06/24 09:51:57;;;;;;;;;;;;;;;28.14;28.71;99117.34;7368062;19;19923;-71
2023/06/24 09:54:30;;;;;;;;;;;;;;;28.24;31.15;99109.31;7368651;19;19918;-71
2023/06/24 09:57:01;;;;;;;;;;;;;;;28.13;31.30;99107.53;7367781;19;20606;-71
2023/06/24 09:59:28;;;;;;;;;;;;;;;28.55;30.78;99108.88;7370499;19;19929;-71
2023/06/24 10:01:55;;;;;;;;;;;;;;;28.52;33.26;99109.41;7360904;19;20369;-71
2023/06/24 10:04:24;;;;;;;;;;;;;;;28.64;30.47;99101.91;7370903;19;19927;-71
2023/06/24 10:06:51;;;;;;;;;;;;;;;28.57;32.25;99104.00;7372011;19;20648;-71
2023/06/24 10:09:19;;;;;;;;;;;;;;;28.63;30.57;99094.81;7375225;19;20009;-72
2023/06/24 10:11:46;;;;;;;;;;;;;;;28.84;30.62;99093.94;7370485;19;20254;-73
2023/06/24 10:14:16;;;;;;;;;;;;;;;28.91;31.49;99092.91;7367386;19;19922;-72
2023/06/24 10:16:44;;;;;;;;;;;;;;;28.73;30.09;99094.94;7363668;19;19939;-71
2023/06/24 10:19:10;;;;;;;;;;;;;;;28.75;30.40;99091.94;7370831;19;19921;-71
2023/06/24 10:22:04;;;;;;;;;;;;;;;28.85;30.83;99100.22;7369646;19;19918;-72
2023/06/24 10:24:32;;;;;;;;;;;;;;;28.67;29.55;99085.88;7368793;19;19931;-71
2023/06/24 10:27:02;;;;;;;;;;;;;;;28.62;30.59;99085.00;7368116;19;19919;-71
2023/06/24 10:29:35;;;;;;;;;;;;;;;28.67;31.05;99090.50;7370677;19;20430;-71
2023/06/24 10:32:05;;;;;;;;;;;;;;;28.54;31.97;99088.19;7362122;19;19922;-71
2023/06/24 10:34:38;;;;;;;;;;;;;;;28.66;29.98;99077.97;7367837;19;20309;-71
2023/06/24 10:37:18;;;;;;;;;;;;;;;28.60;32.34;99071.66;7362538;19;19926;-71
2023/06/24 10:39:45;;;;;;;;;;;;;;;28.48;32.20;99059.25;7363822;19;20366;-72
2023/06/24 10:42:30;;;;;;;;;;;;;;;28.62;31.75;99065.94;7371484;19;20299;-72
2023/06/24 10:44:57;;;;;;;;;;;;;;;28.53;30.02;99062.03;7363380;19;19978;-71
2023/06/24 10:47:25;;;;;;;;;;;;;;;28.35;30.18;99066.72;7370021;19;19947;-71
2023/06/24 10:49:52;;;;;;;;;;;;;;;28.51;31.78;99058.75;7356080;19;20012;-72
2023/06/24 10:52:20;;;;;;;;;;;;;;;28.74;30.05;99060.34;7370935;19;19918;-71
2023/06/24 10:54:47;;;;;;;;;;;;;;;28.40;31.29;99047.72;7367836;19;19919;-70
2023/06/24 10:57:14;;;;;;;;;;;;;;;28.49;33.46;99044.56;7375666;19;19923;-70
2023/06/24 10:59:48;;;;;;;;;;;;;;;28.39;32.17;99039.81;7378092;19;19915;-71
2023/06/24 11:02:15;;;;;;;;;;;;;;;28.53;29.76;99035.63;7372881;19;20264;-70
2023/06/24 11:04:43;;;;;;;;;;;;;;;28.25;30.35;99028.50;7368295;19;19911;-70
2023/06/24 11:07:10;;;;;;;;;;;;;;;28.44;30.71;99037.19;7377634;19;19921;-71
2023/06/24 11:09:37;;;;;;;;;;;;;;;28.39;30.02;99037.09;7377206;19;19923;-70
2023/06/24 11:12:04;;;;;;;;;;;;;;;28.26;29.36;99030.16;7373026;19;19923;-69
2023/06/24 11:14:32;;;;;;;;;;;;;;;28.00;30.17;99032.56;7375602;19;20625;-70
2023/06/24 11:17:00;;;;;;;;;;;;;;;27.25;32.91;99027.72;7370714;19;19933;-70
2023/06/24 11:19:27;;;;;;;;;;;;;;;26.90;32.22;99026.84;7373723;19;19918;-70
2023/06/24 11:21:54;;;;;;;;;;;;;;;26.96;33.12;99019.63;7369023;19;19919;-69
2023/06/24 11:24:20;;;;;;;;;;;;;;;27.04;32.43;99011.09;7372360;19;20655;-70
2023/06/24 11:26:47;;;;;;;;;;;;;;;26.85;34.56;99004.25;7369723;19;20351;-70
2023/06/24 11:29:14;;;;;;;;;;;;;;;26.90;32.95;99004.31;7370459;19;20296;-69
2023/06/24 11:31:44;;;;;;;;;;;;;;;27.05;33.49;99010.00;7376388;19;19922;-69
2023/06/24 11:34:11;;;;;;;;;;;;;;;27.05;32.77;99003.75;7366308;19;20510;-68
2023/06/24 11:36:37;;;;;;;;;;;;;;;26.96;34.28;99007.94;7375019;19;19918;-70
2023/06/24 11:39:05;;;;;;;;;;;;;;;26.79;34.30;99002.53;7370090;19;19923;-69
2023/06/24 11:41:32;;;;;;;;;;;;;;;26.77;34.94;99004.66;7374852;19;19926;-71
2023/06/24 11:44:00;;;;;;;;;;;;;;;26.74;34.61;98997.81;7371753;19;20353;-69
2023/06/24 11:46:33;;;;;;;;;;;;;;;26.85;34.56;98994.19;7373043;19;19926;-71
2023/06/24 11:49:06;;;;;;;;;;;;;;;26.82;31.85;98991.97;7367793;19;19923;-70
2023/06/24 11:51:33;;;;;;;;;;;;;;;26.83;32.32;98985.50;7368761;19;19926;-71
2023/06/24 11:54:01;;;;;;;;;;;;;;;27.08;34.64;98985.06;7362083;19;19923;-72
2023/06/24 11:56:34;;;;;;;;;;;;;;;26.97;34.57;98975.13;7364949;19;19918;-69
2023/06/24 11:59:00;;;;;;;;;;;;;;;27.29;31.92;98974.53;7357640;19;19927;-69
2023/06/24 12:01:36;;;;;;;;;;;;;;;27.38;31.72;98970.28;7366189;19;20268;-69
2023/06/24 12:04:09;;;;;;;;;;;;;;;27.53;30.58;98972.41;7361149;19;19914;-69
2023/06/24 12:06:36;;;;;;;;;;;;;;;27.68;32.55;98974.50;7373033;19;19918;-69
2023/06/24 12:09:03;;;;;;;;;;;;;;;27.76;31.14;98971.34;7366211;19;20286;-70
2023/06/24 12:11:31;;;;;;;;;;;;;;;27.45;30.53;98970.13;7372520;19;19927;-68
2023/06/24 12:13:58;;;;;;;;;;;;;;;27.21;33.76;98964.91;7368173;19;19922;-70
2023/06/24 12:16:26;;;;;;;;;;;;;;;26.89;31.57;98956.53;7369827;19;20391;-68
2023/06/24 12:18:53;;;;;;;;;;;;;;;26.85;32.25;98961.63;7367598;19;19926;-69
2023/06/24 12:21:19;;;;;;;;;;;;;;;26.81;30.56;98948.81;7372374;19;20108;-70
2023/06/24 12:23:46;;;;;;;;;;;;;;;26.85;33.42;98944.50;7371791;19;19922;-70
2023/06/24 12:26:13;;;;;;;;;;;;;;;26.84;32.50;98943.69;7366963;19;19914;-70
2023/06/24 12:28:39;;;;;;;;;;;;;;;27.04;33.98;98937.75;7366479;19;20645;-71
2023/06/24 12:31:06;;;;;;;;;;;;;;;27.20;33.71;98936.13;7371575;19;19948;-70
2023/06/24 12:33:33;;;;;;;;;;;;;;;27.27;32.60;98935.91;7367462;19;19918;-69
2023/06/24 12:36:00;;;;;;;;;;;;;;;27.45;33.26;98930.19;7366520;19;19915;-71
2023/06/24 12:38:26;;;;;;;;;;;;;;;27.54;33.04;98931.41;7368115;19;20355;-71
2023/06/24 12:41:00;;;;;;;;;;;;;;;27.53;32.01;98935.19;7369329;19;20564;-71
2023/06/24 12:43:38;;;;;;;;;;;;;;;27.72;29.79;98934.84;7374711;19;20711;-72
2023/06/24 12:46:10;;;;;;;;;;;;;;;27.85;29.67;98933.69;7367692;19;20288;-70
2023/06/24 12:48:38;;;;;;;;;;;;;;;27.91;28.21;98924.50;7374479;19;19921;-72
2023/06/24 12:51:05;;;;;;;;;;;;;;;27.85;30.27;98925.53;7372685;19;19923;-69
2023/06/24 12:53:32;;;;;;;;;;;;;;;27.66;28.93;98920.38;7370133;19;19919;-70